Messingham, United Kingdom
Current Conditions -  °F | °C
As of 5:50 AM on Friday 28 Nov 2014 (Local Time) from EGNJ Reporting Station
Haze Haze  
Wind Chill: 52°   Ceiling: 400
Heat Index: 52°   Visibility: 1.8mi
Dew Point: 50°   Wind: 7mph
Humidity: 94%   Direction: 80°E
Pressure: 29.68"   Gusts: NA
Location:  53.53°N, 0.65°W
Report Text: EGNJ 280550Z 08006KT 3000 BR BKN004 11/10 Q1005
Loading
Personal Weather Stations






























Interactive Weather Map New forecast layout! Learn more

10-Day Weather Forecast

Advertisements
Track Severe Weather on mobile